Sealy, Texas
Current Conditions -  °F | °C
As of 10:55 AM on Saturday 25 Oct 2014 (Local Time) from KELA Reporting Station
Clear Clear  
Wind Chill: 76°   Ceiling: Unl
Heat Index: 76°   Visibility: 10mi
Dew Point: 61°   Wind: 0mph
Humidity: 59%   Direction: NA
Pressure: 30.19"   Gusts: NA
Location:  29.78°N, 96.16°W
Report Text: KELA 251555Z AUTO 00000KT 10SM CLR 24/16 A3019 RMK AO2 T02430159
Loading
Personal Weather Stations






























Interactive Weather Map
Tropical Storm Tracking
New forecast layout! Learn more

10-Day Weather Forecast

Advertisements
Track Severe Weather on mobile